sensor_id;sensor_type;location;lat;lon;timestamp;P1;durP1;ratioP1;P2;durP2;ratioP2
21507;SDS011;10915;54.352;9.074;2022-10-15T00:00:06;42.87;;;29.40;;
21507;SDS011;10915;54.352;9.074;2022-10-15T00:02:33;43.23;;;30.13;;
21507;SDS011;10915;54.352;9.074;2022-10-15T00:04:59;48.50;;;33.23;;
21507;SDS011;10915;54.352;9.074;2022-10-15T00:07:25;47.90;;;30.97;;
21507;SDS011;10915;54.352;9.074;2022-10-15T00:09:52;43.93;;;30.70;;
21507;SDS011;10915;54.352;9.074;2022-10-15T00:12:17;49.10;;;33.50;;
21507;SDS011;10915;54.352;9.074;2022-10-15T00:14:43;47.23;;;31.83;;
21507;SDS011;10915;54.352;9.074;2022-10-15T00:17:09;49.37;;;33.23;;
21507;SDS011;10915;54.352;9.074;2022-10-15T00:19:35;51.63;;;33.40;;
21507;SDS011;10915;54.352;9.074;2022-10-15T00:22:01;53.40;;;34.23;;
21507;SDS011;10915;54.352;9.074;2022-10-15T00:24:26;48.07;;;33.20;;
21507;SDS011;10915;54.352;9.074;2022-10-15T00:26:52;49.97;;;32.00;;
21507;SDS011;10915;54.352;9.074;2022-10-15T00:29:18;56.43;;;35.17;;
21507;SDS011;10915;54.352;9.074;2022-10-15T00:31:43;52.57;;;34.27;;
21507;SDS011;10915;54.352;9.074;2022-10-15T00:34:09;50.17;;;32.63;;
21507;SDS011;10915;54.352;9.074;2022-10-15T00:36:35;52.33;;;32.90;;
21507;SDS011;10915;54.352;9.074;2022-10-15T00:39:02;51.77;;;33.70;;
21507;SDS011;10915;54.352;9.074;2022-10-15T00:41:30;52.10;;;34.83;;
21507;SDS011;10915;54.352;9.074;2022-10-15T00:46:45;59.67;;;36.57;;
21507;SDS011;10915;54.352;9.074;2022-10-15T00:49:30;57.67;;;34.17;;
21507;SDS011;10915;54.352;9.074;2022-10-15T00:52:00;59.33;;;35.67;;
21507;SDS011;10915;54.352;9.074;2022-10-15T00:54:33;56.47;;;34.13;;
21507;SDS011;10915;54.352;9.074;2022-10-15T00:57:06;61.40;;;36.37;;
21507;SDS011;10915;54.352;9.074;2022-10-15T00:59:32;63.13;;;36.23;;
21507;SDS011;10915;54.352;9.074;2022-10-15T01:02:01;64.93;;;37.40;;
21507;SDS011;10915;54.352;9.074;2022-10-15T01:04:27;64.67;;;34.83;;
21507;SDS011;10915;54.352;9.074;2022-10-15T01:06:54;60.03;;;35.50;;
21507;SDS011;10915;54.352;9.074;2022-10-15T01:09:20;61.20;;;35.17;;
21507;SDS011;10915;54.352;9.074;2022-10-15T01:11:47;63.77;;;37.03;;
21507;SDS011;10915;54.352;9.074;2022-10-15T01:14:20;58.80;;;32.90;;
21507;SDS011;10915;54.352;9.074;2022-10-15T01:16:55;62.90;;;33.87;;
21507;SDS011;10915;54.352;9.074;2022-10-15T01:22:47;61.60;;;34.73;;
21507;SDS011;10915;54.352;9.074;2022-10-15T01:28:19;64.53;;;34.77;;
21507;SDS011;10915;54.352;9.074;2022-10-15T01:31:05;63.87;;;33.50;;
21507;SDS011;10915;54.352;9.074;2022-10-15T01:33:48;71.05;;;38.38;;
21507;SDS011;10915;54.352;9.074;2022-10-15T01:39:10;57.45;;;32.95;;
21507;SDS011;10915;54.352;9.074;2022-10-15T01:41:51;55.03;;;28.93;;
21507;SDS011;10915;54.352;9.074;2022-10-15T01:44:22;53.83;;;29.53;;
21507;SDS011;10915;54.352;9.074;2022-10-15T01:46:56;42.63;;;26.17;;
21507;SDS011;10915;54.352;9.074;2022-10-15T01:49:26;49.57;;;25.10;;
21507;SDS011;10915;54.352;9.074;2022-10-15T01:51:56;48.73;;;26.83;;
21507;SDS011;10915;54.352;9.074;2022-10-15T01:54:24;54.73;;;26.97;;
21507;SDS011;10915;54.352;9.074;2022-10-15T01:56:51;47.03;;;26.20;;
21507;SDS011;10915;54.352;9.074;2022-10-15T01:59:20;49.17;;;25.47;;
21507;SDS011;10915;54.352;9.074;2022-10-15T02:01:48;42.23;;;23.60;;
21507;SDS011;10915;54.352;9.074;2022-10-15T02:04:18;45.20;;;24.73;;
21507;SDS011;10915;54.352;9.074;2022-10-15T02:06:45;40.93;;;23.60;;
21507;SDS011;10915;54.352;9.074;2022-10-15T02:09:31;39.27;;;21.97;;
21507;SDS011;10915;54.352;9.074;2022-10-15T02:12:25;35.77;;;21.10;;
21507;SDS011;10915;54.352;9.074;2022-10-15T02:17:45;33.13;;;20.37;;
21507;SDS011;10915;54.352;9.074;2022-10-15T02:20:19;34.13;;;20.33;;
21507;SDS011;10915;54.352;9.074;2022-10-15T02:22:55;35.37;;;20.07;;
21507;SDS011;10915;54.352;9.074;2022-10-15T02:25:28;32.17;;;18.33;;
21507;SDS011;10915;54.352;9.074;2022-10-15T02:27:55;27.47;;;17.10;;
21507;SDS011;10915;54.352;9.074;2022-10-15T02:30:22;28.50;;;17.97;;
21507;SDS011;10915;54.352;9.074;2022-10-15T02:32:50;28.93;;;18.13;;
21507;SDS011;10915;54.352;9.074;2022-10-15T02:35:18;26.13;;;16.70;;
21507;SDS011;10915;54.352;9.074;2022-10-15T02:37:46;25.77;;;17.83;;
21507;SDS011;10915;54.352;9.074;2022-10-15T02:40:14;23.63;;;15.83;;
21507;SDS011;10915;54.352;9.074;2022-10-15T02:42:40;25.50;;;14.97;;
21507;SDS011;10915;54.352;9.074;2022-10-15T02:45:06;25.17;;;14.80;;
21507;SDS011;10915;54.352;9.074;2022-10-15T02:47:32;22.00;;;14.53;;
21507;SDS011;10915;54.352;9.074;2022-10-15T02:49:58;27.10;;;16.70;;
21507;SDS011;10915;54.352;9.074;2022-10-15T02:52:23;22.77;;;13.90;;
21507;SDS011;10915;54.352;9.074;2022-10-15T02:54:49;27.53;;;14.77;;
21507;SDS011;10915;54.352;9.074;2022-10-15T02:57:14;23.20;;;15.80;;
21507;SDS011;10915;54.352;9.074;2022-10-15T02:59:40;22.00;;;16.23;;
21507;SDS011;10915;54.352;9.074;2022-10-15T03:02:06;28.00;;;16.20;;
21507;SDS011;10915;54.352;9.074;2022-10-15T03:04:32;27.20;;;16.07;;
21507;SDS011;10915;54.352;9.074;2022-10-15T03:06:58;29.33;;;17.07;;
21507;SDS011;10915;54.352;9.074;2022-10-15T03:09:23;21.27;;;14.57;;
21507;SDS011;10915;54.352;9.074;2022-10-15T03:11:49;20.40;;;14.60;;
21507;SDS011;10915;54.352;9.074;2022-10-15T03:14:14;25.97;;;17.13;;
21507;SDS011;10915;54.352;9.074;2022-10-15T03:16:40;23.87;;;15.80;;
21507;SDS011;10915;54.352;9.074;2022-10-15T03:19:06;24.27;;;16.63;;
21507;SDS011;10915;54.352;9.074;2022-10-15T03:21:31;31.50;;;18.90;;
21507;SDS011;10915;54.352;9.074;2022-10-15T03:23:57;23.50;;;17.63;;
21507;SDS011;10915;54.352;9.074;2022-10-15T03:26:23;29.30;;;17.60;;
21507;SDS011;10915;54.352;9.074;2022-10-15T03:28:49;38.10;;;21.10;;
21507;SDS011;10915;54.352;9.074;2022-10-15T03:31:15;34.90;;;19.83;;
21507;SDS011;10915;54.352;9.074;2022-10-15T03:33:41;40.67;;;22.53;;
21507;SDS011;10915;54.352;9.074;2022-10-15T03:36:07;39.57;;;20.80;;
21507;SDS011;10915;54.352;9.074;2022-10-15T03:38:33;39.73;;;22.63;;
21507;SDS011;10915;54.352;9.074;2022-10-15T03:40:58;32.43;;;20.43;;
21507;SDS011;10915;54.352;9.074;2022-10-15T03:43:24;34.20;;;20.47;;
21507;SDS011;10915;54.352;9.074;2022-10-15T03:45:50;35.47;;;20.20;;
21507;SDS011;10915;54.352;9.074;2022-10-15T03:48:16;39.10;;;22.10;;
21507;SDS011;10915;54.352;9.074;2022-10-15T03:50:47;37.13;;;20.13;;
21507;SDS011;10915;54.352;9.074;2022-10-15T03:53:12;35.13;;;20.20;;
21507;SDS011;10915;54.352;9.074;2022-10-15T03:55:38;34.70;;;19.27;;
21507;SDS011;10915;54.352;9.074;2022-10-15T03:58:04;35.53;;;19.97;;
21507;SDS011;10915;54.352;9.074;2022-10-15T04:00:29;33.60;;;20.73;;
21507;SDS011;10915;54.352;9.074;2022-10-15T04:02:55;33.53;;;20.50;;
21507;SDS011;10915;54.352;9.074;2022-10-15T04:05:20;33.27;;;20.03;;
21507;SDS011;10915;54.352;9.074;2022-10-15T04:07:46;39.17;;;21.57;;
21507;SDS011;10915;54.352;9.074;2022-10-15T04:10:11;46.07;;;22.77;;
21507;SDS011;10915;54.352;9.074;2022-10-15T04:12:37;40.90;;;22.50;;
21507;SDS011;10915;54.352;9.074;2022-10-15T04:15:03;43.63;;;24.57;;
21507;SDS011;10915;54.352;9.074;2022-10-15T04:17:28;44.40;;;24.33;;
21507;SDS011;10915;54.352;9.074;2022-10-15T04:19:54;41.10;;;23.50;;
21507;SDS011;10915;54.352;9.074;2022-10-15T04:22:20;53.07;;;27.60;;
21507;SDS011;10915;54.352;9.074;2022-10-15T04:24:45;44.90;;;23.47;;
21507;SDS011;10915;54.352;9.074;2022-10-15T04:27:11;47.63;;;24.50;;
21507;SDS011;10915;54.352;9.074;2022-10-15T04:29:38;50.23;;;24.17;;
21507;SDS011;10915;54.352;9.074;2022-10-15T04:32:03;54.43;;;28.27;;
21507;SDS011;10915;54.352;9.074;2022-10-15T04:34:29;66.37;;;29.67;;
21507;SDS011;10915;54.352;9.074;2022-10-15T04:36:55;70.87;;;31.90;;
21507;SDS011;10915;54.352;9.074;2022-10-15T04:39:20;62.77;;;31.33;;
21507;SDS011;10915;54.352;9.074;2022-10-15T04:41:46;65.90;;;33.97;;
21507;SDS011;10915;54.352;9.074;2022-10-15T04:44:12;73.93;;;36.70;;
21507;SDS011;10915;54.352;9.074;2022-10-15T04:46:38;78.17;;;36.87;;
21507;SDS011;10915;54.352;9.074;2022-10-15T04:49:03;77.67;;;35.40;;
21507;SDS011;10915;54.352;9.074;2022-10-15T04:51:29;67.80;;;34.63;;
21507;SDS011;10915;54.352;9.074;2022-10-15T04:53:54;72.57;;;38.07;;
21507;SDS011;10915;54.352;9.074;2022-10-15T04:56:20;59.60;;;33.30;;
21507;SDS011;10915;54.352;9.074;2022-10-15T04:58:47;83.37;;;38.13;;
21507;SDS011;10915;54.352;9.074;2022-10-15T05:01:15;80.07;;;38.63;;
21507;SDS011;10915;54.352;9.074;2022-10-15T05:03:43;66.17;;;35.07;;
21507;SDS011;10915;54.352;9.074;2022-10-15T05:06:11;71.17;;;36.27;;
21507;SDS011;10915;54.352;9.074;2022-10-15T05:08:39;87.43;;;39.87;;
21507;SDS011;10915;54.352;9.074;2022-10-15T05:11:12;69.97;;;36.50;;
21507;SDS011;10915;54.352;9.074;2022-10-15T05:13:40;73.03;;;34.77;;
21507;SDS011;10915;54.352;9.074;2022-10-15T05:16:10;76.67;;;35.77;;
21507;SDS011;10915;54.352;9.074;2022-10-15T05:18:39;69.23;;;34.53;;
21507;SDS011;10915;54.352;9.074;2022-10-15T05:21:06;71.30;;;35.10;;
21507;SDS011;10915;54.352;9.074;2022-10-15T05:23:32;74.73;;;37.20;;
21507;SDS011;10915;54.352;9.074;2022-10-15T05:26:02;81.90;;;41.03;;
21507;SDS011;10915;54.352;9.074;2022-10-15T05:28:29;81.67;;;39.40;;
21507;SDS011;10915;54.352;9.074;2022-10-15T05:30:55;66.60;;;35.57;;
21507;SDS011;10915;54.352;9.074;2022-10-15T05:33:26;64.77;;;33.93;;
21507;SDS011;10915;54.352;9.074;2022-10-15T05:35:52;65.67;;;33.17;;
21507;SDS011;10915;54.352;9.074;2022-10-15T05:38:18;58.63;;;33.90;;
21507;SDS011;10915;54.352;9.074;2022-10-15T05:40:47;57.67;;;33.07;;
21507;SDS011;10915;54.352;9.074;2022-10-15T05:43:13;62.93;;;34.47;;
21507;SDS011;10915;54.352;9.074;2022-10-15T05:45:39;59.90;;;32.90;;
21507;SDS011;10915;54.352;9.074;2022-10-15T05:48:05;60.03;;;34.85;;
21507;SDS011;10915;54.352;9.074;2022-10-15T05:50:31;55.67;;;30.60;;
21507;SDS011;10915;54.352;9.074;2022-10-15T05:52:58;57.10;;;30.63;;
21507;SDS011;10915;54.352;9.074;2022-10-15T05:55:24;58.43;;;31.30;;
21507;SDS011;10915;54.352;9.074;2022-10-15T05:57:49;59.07;;;31.70;;
21507;SDS011;10915;54.352;9.074;2022-10-15T06:00:15;55.57;;;32.00;;
21507;SDS011;10915;54.352;9.074;2022-10-15T06:02:41;55.77;;;31.33;;
21507;SDS011;10915;54.352;9.074;2022-10-15T06:05:06;61.17;;;32.30;;
21507;SDS011;10915;54.352;9.074;2022-10-15T06:07:32;53.07;;;30.57;;
21507;SDS011;10915;54.352;9.074;2022-10-15T06:09:58;56.20;;;30.77;;
21507;SDS011;10915;54.352;9.074;2022-10-15T06:12:24;50.30;;;27.10;;
21507;SDS011;10915;54.352;9.074;2022-10-15T06:14:49;59.70;;;30.60;;
21507;SDS011;10915;54.352;9.074;2022-10-15T06:17:15;57.33;;;31.90;;
21507;SDS011;10915;54.352;9.074;2022-10-15T06:19:41;61.40;;;32.57;;
21507;SDS011;10915;54.352;9.074;2022-10-15T06:22:06;61.27;;;31.33;;
21507;SDS011;10915;54.352;9.074;2022-10-15T06:24:32;50.97;;;30.70;;
21507;SDS011;10915;54.352;9.074;2022-10-15T06:26:57;63.67;;;34.07;;
21507;SDS011;10915;54.352;9.074;2022-10-15T06:29:24;64.10;;;33.97;;
21507;SDS011;10915;54.352;9.074;2022-10-15T06:31:49;65.37;;;33.90;;
21507;SDS011;10915;54.352;9.074;2022-10-15T06:34:15;67.47;;;35.50;;
21507;SDS011;10915;54.352;9.074;2022-10-15T06:36:41;57.83;;;34.47;;
21507;SDS011;10915;54.352;9.074;2022-10-15T06:39:06;66.03;;;35.40;;
21507;SDS011;10915;54.352;9.074;2022-10-15T06:41:32;61.13;;;35.03;;
21507;SDS011;10915;54.352;9.074;2022-10-15T06:43:57;60.23;;;35.07;;
21507;SDS011;10915;54.352;9.074;2022-10-15T06:46:23;60.40;;;35.73;;
21507;SDS011;10915;54.352;9.074;2022-10-15T06:48:49;63.13;;;36.83;;
21507;SDS011;10915;54.352;9.074;2022-10-15T06:51:16;60.00;;;36.60;;
21507;SDS011;10915;54.352;9.074;2022-10-15T06:53:41;68.30;;;38.43;;
21507;SDS011;10915;54.352;9.074;2022-10-15T06:56:07;68.77;;;40.03;;
21507;SDS011;10915;54.352;9.074;2022-10-15T06:58:33;70.53;;;36.73;;
21507;SDS011;10915;54.352;9.074;2022-10-15T07:01:02;73.00;;;39.60;;
21507;SDS011;10915;54.352;9.074;2022-10-15T07:03:29;72.57;;;40.00;;
21507;SDS011;10915;54.352;9.074;2022-10-15T07:06:00;84.60;;;43.37;;
21507;SDS011;10915;54.352;9.074;2022-10-15T07:08:26;90.37;;;45.77;;
21507;SDS011;10915;54.352;9.074;2022-10-15T07:10:52;88.43;;;43.90;;
21507;SDS011;10915;54.352;9.074;2022-10-15T07:13:17;70.27;;;38.83;;
21507;SDS011;10915;54.352;9.074;2022-10-15T07:15:43;79.37;;;42.10;;
21507;SDS011;10915;54.352;9.074;2022-10-15T07:18:10;87.63;;;44.57;;
21507;SDS011;10915;54.352;9.074;2022-10-15T07:20:35;87.17;;;43.83;;
21507;SDS011;10915;54.352;9.074;2022-10-15T07:23:01;86.87;;;46.40;;
21507;SDS011;10915;54.352;9.074;2022-10-15T07:25:27;83.63;;;44.10;;
21507;SDS011;10915;54.352;9.074;2022-10-15T07:27:53;79.10;;;43.50;;
21507;SDS011;10915;54.352;9.074;2022-10-15T07:30:20;86.23;;;44.23;;
21507;SDS011;10915;54.352;9.074;2022-10-15T07:32:47;90.93;;;44.07;;
21507;SDS011;10915;54.352;9.074;2022-10-15T07:35:12;81.33;;;43.50;;
21507;SDS011;10915;54.352;9.074;2022-10-15T07:37:38;83.30;;;44.13;;
21507;SDS011;10915;54.352;9.074;2022-10-15T07:40:04;88.13;;;44.03;;
21507;SDS011;10915;54.352;9.074;2022-10-15T07:42:31;78.47;;;44.67;;
21507;SDS011;10915;54.352;9.074;2022-10-15T07:44:56;85.10;;;45.90;;
21507;SDS011;10915;54.352;9.074;2022-10-15T07:47:23;81.77;;;46.07;;
21507;SDS011;10915;54.352;9.074;2022-10-15T07:49:48;89.67;;;47.00;;
21507;SDS011;10915;54.352;9.074;2022-10-15T07:52:14;94.47;;;47.53;;
21507;SDS011;10915;54.352;9.074;2022-10-15T07:54:40;105.47;;;50.73;;
21507;SDS011;10915;54.352;9.074;2022-10-15T07:57:05;91.30;;;46.23;;
21507;SDS011;10915;54.352;9.074;2022-10-15T07:59:31;94.20;;;47.77;;
21507;SDS011;10915;54.352;9.074;2022-10-15T08:01:57;105.43;;;50.73;;
21507;SDS011;10915;54.352;9.074;2022-10-15T08:04:23;100.10;;;48.13;;
21507;SDS011;10915;54.352;9.074;2022-10-15T08:06:48;104.63;;;48.30;;
21507;SDS011;10915;54.352;9.074;2022-10-15T08:09:14;96.67;;;47.23;;
21507;SDS011;10915;54.352;9.074;2022-10-15T08:11:41;106.33;;;47.83;;
21507;SDS011;10915;54.352;9.074;2022-10-15T08:14:06;97.27;;;46.63;;
21507;SDS011;10915;54.352;9.074;2022-10-15T08:16:32;93.13;;;48.13;;
21507;SDS011;10915;54.352;9.074;2022-10-15T08:18:58;104.38;;;54.50;;
21507;SDS011;10915;54.352;9.074;2022-10-15T08:21:24;105.10;;;49.93;;
21507;SDS011;10915;54.352;9.074;2022-10-15T08:23:50;100.60;;;42.97;;
21507;SDS011;10915;54.352;9.074;2022-10-15T08:26:16;97.93;;;45.73;;
21507;SDS011;10915;54.352;9.074;2022-10-15T08:28:42;95.90;;;46.23;;
21507;SDS011;10915;54.352;9.074;2022-10-15T08:31:08;101.87;;;46.53;;
21507;SDS011;10915;54.352;9.074;2022-10-15T08:33:34;96.47;;;47.27;;
21507;SDS011;10915;54.352;9.074;2022-10-15T08:36:00;87.53;;;43.17;;
21507;SDS011;10915;54.352;9.074;2022-10-15T08:38:28;97.80;;;45.60;;
21507;SDS011;10915;54.352;9.074;2022-10-15T08:40:55;100.13;;;47.57;;
21507;SDS011;10915;54.352;9.074;2022-10-15T08:46:00;96.13;;;45.83;;
21507;SDS011;10915;54.352;9.074;2022-10-15T08:48:35;103.93;;;49.60;;
21507;SDS011;10915;54.352;9.074;2022-10-15T08:53:37;99.70;;;47.33;;
21507;SDS011;10915;54.352;9.074;2022-10-15T08:56:16;90.20;;;45.30;;
21507;SDS011;10915;54.352;9.074;2022-10-15T09:01:34;88.93;;;45.93;;
21507;SDS011;10915;54.352;9.074;2022-10-15T09:07:10;100.20;;;46.63;;
21507;SDS011;10915;54.352;9.074;2022-10-15T09:14:48;88.33;;;44.97;;
21507;SDS011;10915;54.352;9.074;2022-10-15T09:19:45;96.63;;;48.20;;
21507;SDS011;10915;54.352;9.074;2022-10-15T09:22:16;93.13;;;46.70;;
21507;SDS011;10915;54.352;9.074;2022-10-15T09:24:47;87.93;;;43.87;;
21507;SDS011;10915;54.352;9.074;2022-10-15T09:35:18;82.13;;;43.33;;
21507;SDS011;10915;54.352;9.074;2022-10-15T09:40:25;80.33;;;44.43;;
21507;SDS011;10915;54.352;9.074;2022-10-15T09:43:10;73.80;;;40.20;;
21507;SDS011;10915;54.352;9.074;2022-10-15T09:45:37;66.97;;;39.93;;
21507;SDS011;10915;54.352;9.074;2022-10-15T09:48:07;69.70;;;40.27;;
21507;SDS011;10915;54.352;9.074;2022-10-15T15:09:27;28.93;;;23.47;;
21507;SDS011;10915;54.352;9.074;2022-10-15T15:11:53;28.17;;;23.47;;
21507;SDS011;10915;54.352;9.074;2022-10-15T15:14:23;25.43;;;21.70;;
21507;SDS011;10915;54.352;9.074;2022-10-15T15:16:49;30.70;;;24.97;;
21507;SDS011;10915;54.352;9.074;2022-10-15T15:19:18;27.60;;;23.87;;
21507;SDS011;10915;54.352;9.074;2022-10-15T15:21:45;30.70;;;27.07;;
21507;SDS011;10915;54.352;9.074;2022-10-15T15:24:11;33.63;;;26.53;;
21507;SDS011;10915;54.352;9.074;2022-10-15T15:26:37;29.73;;;26.37;;
21507;SDS011;10915;54.352;9.074;2022-10-15T15:29:07;31.50;;;27.77;;
21507;SDS011;10915;54.352;9.074;2022-10-15T15:38:16;35.23;;;30.80;;
21507;SDS011;10915;54.352;9.074;2022-10-15T15:40:44;35.90;;;32.20;;
21507;SDS011;10915;54.352;9.074;2022-10-15T15:43:13;39.63;;;35.27;;
21507;SDS011;10915;54.352;9.074;2022-10-15T15:45:41;38.53;;;34.47;;
21507;SDS011;10915;54.352;9.074;2022-10-15T15:48:06;40.67;;;36.55;;
21507;SDS011;10915;54.352;9.074;2022-10-15T15:50:32;43.23;;;35.37;;
21507;SDS011;10915;54.352;9.074;2022-10-15T15:52:59;39.23;;;33.73;;
21507;SDS011;10915;54.352;9.074;2022-10-15T15:55:24;38.10;;;33.87;;
21507;SDS011;10915;54.352;9.074;2022-10-15T15:57:50;39.33;;;34.37;;
21507;SDS011;10915;54.352;9.074;2022-10-15T16:00:16;40.07;;;34.90;;
21507;SDS011;10915;54.352;9.074;2022-10-15T16:02:42;40.23;;;35.93;;
21507;SDS011;10915;54.352;9.074;2022-10-15T16:05:08;45.57;;;39.23;;
21507;SDS011;10915;54.352;9.074;2022-10-15T16:07:37;43.07;;;38.47;;
21507;SDS011;10915;54.352;9.074;2022-10-15T16:10:02;47.83;;;38.83;;
21507;SDS011;10915;54.352;9.074;2022-10-15T16:12:30;43.37;;;37.77;;
21507;SDS011;10915;54.352;9.074;2022-10-15T16:14:58;42.43;;;37.20;;
21507;SDS011;10915;54.352;9.074;2022-10-15T16:17:24;41.50;;;35.77;;
21507;SDS011;10915;54.352;9.074;2022-10-15T16:19:50;40.00;;;34.30;;
21507;SDS011;10915;54.352;9.074;2022-10-15T16:22:16;40.83;;;35.73;;
21507;SDS011;10915;54.352;9.074;2022-10-15T16:24:41;44.87;;;38.40;;
21507;SDS011;10915;54.352;9.074;2022-10-15T16:27:07;46.03;;;38.90;;
21507;SDS011;10915;54.352;9.074;2022-10-15T16:29:33;47.67;;;40.57;;
21507;SDS011;10915;54.352;9.074;2022-10-15T16:31:59;42.23;;;37.43;;
21507;SDS011;10915;54.352;9.074;2022-10-15T16:34:25;44.37;;;38.00;;
21507;SDS011;10915;54.352;9.074;2022-10-15T16:36:50;46.17;;;39.87;;
21507;SDS011;10915;54.352;9.074;2022-10-15T16:39:16;45.67;;;38.70;;
21507;SDS011;10915;54.352;9.074;2022-10-15T16:41:42;45.63;;;38.83;;
21507;SDS011;10915;54.352;9.074;2022-10-15T16:44:08;42.63;;;37.67;;
21507;SDS011;10915;54.352;9.074;2022-10-15T16:46:34;50.37;;;39.07;;
21507;SDS011;10915;54.352;9.074;2022-10-15T16:49:00;48.27;;;39.70;;
21507;SDS011;10915;54.352;9.074;2022-10-15T16:51:26;48.73;;;35.90;;
21507;SDS011;10915;54.352;9.074;2022-10-15T16:53:52;47.33;;;36.93;;
21507;SDS011;10915;54.352;9.074;2022-10-15T16:56:22;48.27;;;37.90;;
21507;SDS011;10915;54.352;9.074;2022-10-15T16:58:52;45.27;;;36.07;;
21507;SDS011;10915;54.352;9.074;2022-10-15T17:01:20;58.42;;;42.17;;
21507;SDS011;10915;54.352;9.074;2022-10-15T17:03:47;51.77;;;37.67;;
21507;SDS011;10915;54.352;9.074;2022-10-15T17:06:14;47.97;;;36.83;;
21507;SDS011;10915;54.352;9.074;2022-10-15T17:11:14;53.00;;;37.37;;
21507;SDS011;10915;54.352;9.074;2022-10-15T17:13:41;55.77;;;41.70;;
21507;SDS011;10915;54.352;9.074;2022-10-15T17:16:14;54.17;;;40.80;;
21507;SDS011;10915;54.352;9.074;2022-10-15T17:18:42;53.53;;;40.80;;
21507;SDS011;10915;54.352;9.074;2022-10-15T17:21:09;53.13;;;39.63;;
21507;SDS011;10915;54.352;9.074;2022-10-15T17:23:37;61.70;;;43.25;;
21507;SDS011;10915;54.352;9.074;2022-10-15T17:26:04;51.07;;;35.37;;
21507;SDS011;10915;54.352;9.074;2022-10-15T17:28:31;52.00;;;36.43;;
21507;SDS011;10915;54.352;9.074;2022-10-15T17:31:04;49.60;;;36.47;;
21507;SDS011;10915;54.352;9.074;2022-10-15T17:33:32;57.60;;;40.80;;
21507;SDS011;10915;54.352;9.074;2022-10-15T17:36:09;55.87;;;38.20;;
21507;SDS011;10915;54.352;9.074;2022-10-15T17:38:36;58.08;;;39.28;;
21507;SDS011;10915;54.352;9.074;2022-10-15T17:41:06;50.40;;;31.83;;
21507;SDS011;10915;54.352;9.074;2022-10-15T17:43:37;52.87;;;33.83;;
21507;SDS011;10915;54.352;9.074;2022-10-15T17:46:04;57.97;;;33.60;;
21507;SDS011;10915;54.352;9.074;2022-10-15T17:48:41;52.03;;;34.17;;
21507;SDS011;10915;54.352;9.074;2022-10-15T17:51:08;53.83;;;34.53;;
21507;SDS011;10915;54.352;9.074;2022-10-15T17:53:35;49.63;;;32.67;;
21507;SDS011;10915;54.352;9.074;2022-10-15T17:56:11;52.63;;;33.70;;
21507;SDS011;10915;54.352;9.074;2022-10-15T17:58:38;44.90;;;27.90;;
21507;SDS011;10915;54.352;9.074;2022-10-15T18:01:04;44.87;;;29.10;;
21507;SDS011;10915;54.352;9.074;2022-10-15T18:03:30;46.17;;;30.63;;
21507;SDS011;10915;54.352;9.074;2022-10-15T18:05:56;43.63;;;28.00;;
21507;SDS011;10915;54.352;9.074;2022-10-15T18:08:22;37.77;;;25.67;;
21507;SDS011;10915;54.352;9.074;2022-10-15T18:10:51;37.37;;;25.57;;
21507;SDS011;10915;54.352;9.074;2022-10-15T18:13:18;42.53;;;30.33;;
21507;SDS011;10915;54.352;9.074;2022-10-15T18:15:48;33.13;;;24.27;;
21507;SDS011;10915;54.352;9.074;2022-10-15T18:18:15;36.60;;;24.93;;
21507;SDS011;10915;54.352;9.074;2022-10-15T18:20:42;61.20;;;33.13;;
21507;SDS011;10915;54.352;9.074;2022-10-15T18:23:09;35.97;;;26.13;;
21507;SDS011;10915;54.352;9.074;2022-10-15T18:25:35;36.67;;;25.60;;
21507;SDS011;10915;54.352;9.074;2022-10-15T18:28:04;38.20;;;25.23;;
21507;SDS011;10915;54.352;9.074;2022-10-15T18:30:31;36.03;;;24.40;;
21507;SDS011;10915;54.352;9.074;2022-10-15T18:33:01;42.17;;;27.37;;
21507;SDS011;10915;54.352;9.074;2022-10-15T18:35:26;34.80;;;23.73;;
21507;SDS011;10915;54.352;9.074;2022-10-15T18:37:52;34.60;;;23.97;;
21507;SDS011;10915;54.352;9.074;2022-10-15T18:40:18;35.07;;;22.80;;
21507;SDS011;10915;54.352;9.074;2022-10-15T18:42:43;34.43;;;23.70;;
21507;SDS011;10915;54.352;9.074;2022-10-15T18:45:09;34.23;;;23.20;;
21507;SDS011;10915;54.352;9.074;2022-10-15T18:47:35;36.93;;;23.77;;
21507;SDS011;10915;54.352;9.074;2022-10-15T18:50:01;35.00;;;24.10;;
21507;SDS011;10915;54.352;9.074;2022-10-15T18:52:27;39.00;;;26.20;;
21507;SDS011;10915;54.352;9.074;2022-10-15T18:54:52;41.23;;;27.80;;
21507;SDS011;10915;54.352;9.074;2022-10-15T18:57:18;41.77;;;29.23;;
21507;SDS011;10915;54.352;9.074;2022-10-15T18:59:44;43.27;;;30.87;;
21507;SDS011;10915;54.352;9.074;2022-10-15T19:02:11;45.23;;;30.77;;
21507;SDS011;10915;54.352;9.074;2022-10-15T19:04:37;45.07;;;30.93;;
21507;SDS011;10915;54.352;9.074;2022-10-15T19:07:02;46.67;;;33.50;;
21507;SDS011;10915;54.352;9.074;2022-10-15T19:09:28;45.10;;;32.10;;
21507;SDS011;10915;54.352;9.074;2022-10-15T19:11:55;45.10;;;32.43;;
21507;SDS011;10915;54.352;9.074;2022-10-15T19:14:22;45.13;;;30.27;;
21507;SDS011;10915;54.352;9.074;2022-10-15T19:16:50;43.13;;;30.60;;
21507;SDS011;10915;54.352;9.074;2022-10-15T19:19:17;40.27;;;30.37;;
21507;SDS011;10915;54.352;9.074;2022-10-15T19:21:45;42.60;;;31.63;;
21507;SDS011;10915;54.352;9.074;2022-10-15T19:24:13;44.07;;;31.57;;
21507;SDS011;10915;54.352;9.074;2022-10-15T19:26:40;41.63;;;30.43;;
21507;SDS011;10915;54.352;9.074;2022-10-15T19:29:06;41.53;;;29.77;;
21507;SDS011;10915;54.352;9.074;2022-10-15T19:31:33;38.03;;;28.80;;
21507;SDS011;10915;54.352;9.074;2022-10-15T19:34:00;41.93;;;28.70;;
21507;SDS011;10915;54.352;9.074;2022-10-15T19:36:27;37.77;;;28.63;;
21507;SDS011;10915;54.352;9.074;2022-10-15T19:39:03;39.23;;;29.07;;
21507;SDS011;10915;54.352;9.074;2022-10-15T19:41:31;40.10;;;28.83;;
21507;SDS011;10915;54.352;9.074;2022-10-15T19:44:00;37.30;;;27.00;;
21507;SDS011;10915;54.352;9.074;2022-10-15T19:46:26;34.97;;;25.60;;
21507;SDS011;10915;54.352;9.074;2022-10-15T19:48:53;33.43;;;24.50;;
21507;SDS011;10915;54.352;9.074;2022-10-15T19:51:19;36.67;;;27.60;;
21507;SDS011;10915;54.352;9.074;2022-10-15T19:53:45;35.70;;;26.33;;
21507;SDS011;10915;54.352;9.074;2022-10-15T19:56:14;33.53;;;24.97;;
21507;SDS011;10915;54.352;9.074;2022-10-15T19:58:39;33.50;;;24.67;;
21507;SDS011;10915;54.352;9.074;2022-10-15T20:01:05;32.27;;;24.33;;
21507;SDS011;10915;54.352;9.074;2022-10-15T20:03:31;33.30;;;24.23;;
21507;SDS011;10915;54.352;9.074;2022-10-15T20:05:57;29.17;;;23.07;;
21507;SDS011;10915;54.352;9.074;2022-10-15T20:08:23;26.83;;;21.40;;
21507;SDS011;10915;54.352;9.074;2022-10-15T20:10:49;32.83;;;23.70;;
21507;SDS011;10915;54.352;9.074;2022-10-15T20:13:16;28.57;;;21.70;;
21507;SDS011;10915;54.352;9.074;2022-10-15T20:15:43;31.83;;;21.63;;
21507;SDS011;10915;54.352;9.074;2022-10-15T20:18:12;26.10;;;19.97;;
21507;SDS011;10915;54.352;9.074;2022-10-15T20:20:39;25.13;;;19.67;;
21507;SDS011;10915;54.352;9.074;2022-10-15T20:23:06;26.63;;;19.13;;
21507;SDS011;10915;54.352;9.074;2022-10-15T20:25:32;30.63;;;19.47;;
21507;SDS011;10915;54.352;9.074;2022-10-15T20:28:00;25.03;;;17.93;;
21507;SDS011;10915;54.352;9.074;2022-10-15T20:30:26;24.83;;;17.87;;
21507;SDS011;10915;54.352;9.074;2022-10-15T20:32:52;30.57;;;18.30;;